createdAt,value
2023-02-28T00:05:34.703Z,5.03
2023-02-28T00:12:16.970Z,4.38
2023-02-28T00:18:59.251Z,4.45
2023-02-28T00:25:41.552Z,5.43
2023-02-28T00:32:23.936Z,7.40
2023-02-28T00:39:06.239Z,7.78
2023-02-28T00:45:48.621Z,8.73
2023-02-28T00:52:31.326Z,6.07
2023-02-28T00:59:15.043Z,3.72
2023-02-28T01:05:57.368Z,6.97
2023-02-28T01:12:39.774Z,6.63
2023-02-28T01:19:22.092Z,5.45
2023-02-28T01:26:06.944Z,5.07
2023-02-28T01:32:49.281Z,4.25
2023-02-28T01:39:31.639Z,7.03
2023-02-28T01:46:14.894Z,3.90
2023-02-28T01:53:01.655Z,4.90
2023-02-28T01:59:47.291Z,7.50
2023-02-28T02:06:39.637Z,8.60
2023-02-28T02:13:56.216Z,5.20
2023-02-28T02:21:19.241Z,5.95
2023-02-28T02:28:40.248Z,6.20
2023-02-28T02:35:44.247Z,7.97
2023-02-28T02:42:35.742Z,4.97
2023-02-28T02:49:34.768Z,4.95
2023-02-28T02:56:24.633Z,4.70
2023-02-28T03:03:09.120Z,5.45
2023-02-28T03:09:56.969Z,5.68
2023-02-28T03:17:10.041Z,7.43
2023-02-28T03:24:13.190Z,6.78
2023-02-28T03:31:18.923Z,4.68
2023-02-28T03:38:08.306Z,4.90
2023-02-28T03:45:01.516Z,5.53
2023-02-28T03:51:46.888Z,7.32
2023-02-28T03:58:48.056Z,8.02
2023-02-28T04:05:31.072Z,5.88
2023-02-28T04:12:13.558Z,7.15
2023-02-28T04:19:02.873Z,7.55
2023-02-28T04:25:45.161Z,6.18
2023-02-28T04:32:27.506Z,7.00
2023-02-28T04:39:10.691Z,5.22
2023-02-28T04:45:53.146Z,6.28
2023-02-28T04:52:35.461Z,6.53
2023-02-28T04:59:18.201Z,7.80
2023-02-28T05:06:00.502Z,7.72
2023-02-28T05:12:42.768Z,5.82
2023-02-28T05:19:25.050Z,6.22
2023-02-28T05:26:07.355Z,6.72
2023-02-28T05:32:52.523Z,7.32
2023-02-28T05:39:34.830Z,5.22
2023-02-28T05:46:17.575Z,7.20
2023-02-28T05:52:59.847Z,8.82
2023-02-28T05:59:42.270Z,9.60
2023-02-28T06:06:24.593Z,10.43
2023-02-28T06:13:07.152Z,8.80
2023-02-28T06:19:49.529Z,7.35
2023-02-28T06:26:32.072Z,7.35
2023-02-28T06:33:14.390Z,9.80
2023-02-28T06:39:57.074Z,10.23
2023-02-28T06:46:44.485Z,7.82
2023-02-28T06:53:26.795Z,9.80
2023-02-28T07:00:10.959Z,7.78
2023-02-28T07:06:53.282Z,8.48
2023-02-28T07:13:36.069Z,12.45
2023-02-28T07:20:18.530Z,10.32
2023-02-28T07:27:01.846Z,8.32
2023-02-28T07:33:44.745Z,8.38
2023-02-28T07:40:27.854Z,8.88
2023-02-28T07:47:11.002Z,10.13
2023-02-28T07:53:53.283Z,8.95
2023-02-28T08:00:35.889Z,8.68
2023-02-28T08:07:19.382Z,8.35
2023-02-28T08:14:01.825Z,8.45
2023-02-28T08:20:44.375Z,9.52
2023-02-28T08:27:26.747Z,7.97
2023-02-28T08:34:11.753Z,10.07
2023-02-28T08:41:02.068Z,8.80
2023-02-28T08:47:44.372Z,10.27
2023-02-28T08:54:26.775Z,9.25
2023-02-28T09:01:22.413Z,10.52
2023-02-28T09:08:04.976Z,10.70
2023-02-28T09:14:47.223Z,10.63
2023-02-28T09:21:29.991Z,13.32
2023-02-28T09:28:12.560Z,10.85
2023-02-28T09:34:55.086Z,14.85
2023-02-28T09:41:49.468Z,8.93
2023-02-28T09:48:41.252Z,10.02
2023-02-28T09:55:46.262Z,10.20
2023-02-28T10:02:37.570Z,9.02
2023-02-28T10:09:31.969Z,10.07
2023-02-28T10:16:21.052Z,12.10
2023-02-28T10:23:29.011Z,10.07
2023-02-28T10:30:14.698Z,11.25
2023-02-28T10:37:08.165Z,10.73
2023-02-28T10:43:50.493Z,10.23
2023-02-28T10:50:47.852Z,11.00
2023-02-28T10:57:31.781Z,10.10
2023-02-28T11:04:30.490Z,10.98
2023-02-28T11:11:13.078Z,10.00
2023-02-28T11:17:57.021Z,8.70
2023-02-28T11:24:44.868Z,9.27
2023-02-28T11:31:30.911Z,10.38
2023-02-28T11:38:14.088Z,9.10
2023-02-28T11:45:27.361Z,10.60
2023-02-28T11:52:34.581Z,8.93
2023-02-28T11:59:34.916Z,9.73
2023-02-28T12:06:31.493Z,8.88
2023-02-28T12:13:36.927Z,8.95
2023-02-28T12:20:45.462Z,10.57
2023-02-28T12:27:32.532Z,10.05
2023-02-28T12:34:21.409Z,9.35
2023-02-28T12:41:09.873Z,9.73
2023-02-28T12:47:59.101Z,8.95
2023-02-28T12:55:04.860Z,9.77
2023-02-28T13:02:19.710Z,9.27
2023-02-28T13:09:05.925Z,7.95
2023-02-28T13:16:08.787Z,9.98
2023-02-28T13:22:54.404Z,8.00
2023-02-28T13:29:39.674Z,9.30
2023-02-28T13:36:23.697Z,12.07
2023-02-28T13:43:09.962Z,9.80
2023-02-28T13:49:52.886Z,8.85
2023-02-28T13:56:50.501Z,8.50
2023-02-28T14:03:44.739Z,8.90
2023-02-28T14:10:33.323Z,9.55
2023-02-28T14:17:17.597Z,11.52
2023-02-28T14:24:30.006Z,8.90
2023-02-28T14:31:24.436Z,13.48
2023-02-28T14:38:14.458Z,10.10
2023-02-28T14:44:57.502Z,8.32
2023-02-28T14:51:39.920Z,9.43
2023-02-28T14:58:28.338Z,13.43
2023-02-28T15:05:10.597Z,8.98
2023-02-28T15:11:52.979Z,11.25
2023-02-28T15:18:56.643Z,10.13
2023-02-28T15:25:40.820Z,10.15
2023-02-28T15:32:27.885Z,9.30
2023-02-28T15:39:30.834Z,9.95
2023-02-28T15:46:15.164Z,9.50
2023-02-28T15:52:58.877Z,13.60
2023-02-28T15:59:51.877Z,12.15
2023-02-28T16:06:39.232Z,9.45
2023-02-28T16:13:21.537Z,9.35
2023-02-28T16:20:27.252Z,11.60
2023-02-28T16:27:33.878Z,10.57
2023-02-28T16:34:16.212Z,9.73
2023-02-28T16:41:01.471Z,12.27
2023-02-28T16:47:43.785Z,10.32
2023-02-28T16:54:26.260Z,12.23
2023-02-28T17:01:08.940Z,13.02
2023-02-28T17:07:51.698Z,11.63
2023-02-28T17:14:34.343Z,15.07
2023-02-28T17:21:17.586Z,11.40
2023-02-28T17:27:59.926Z,14.63
2023-02-28T17:34:42.270Z,19.50
2023-02-28T17:41:25.198Z,14.43
2023-02-28T17:48:09.922Z,14.68
2023-02-28T17:54:52.246Z,15.73
2023-02-28T18:01:34.606Z,13.38
2023-02-28T18:08:17.272Z,18.85
2023-02-28T18:15:00.130Z,16.88
2023-02-28T18:21:46.516Z,17.98
2023-02-28T18:28:28.957Z,16.15
2023-02-28T18:35:11.305Z,18.80
2023-02-28T18:41:53.614Z,18.77
2023-02-28T18:48:36.661Z,19.13
2023-02-28T18:55:19.085Z,19.15
2023-02-28T19:02:01.476Z,20.92
2023-02-28T19:08:44.074Z,21.02
2023-02-28T19:15:27.012Z,24.88
2023-02-28T19:22:10.069Z,19.52
2023-02-28T19:28:52.998Z,21.45
2023-02-28T19:35:35.649Z,23.10
2023-02-28T19:42:18.889Z,28.30
2023-02-28T19:49:01.223Z,22.83
2023-02-28T19:55:46.220Z,24.80
2023-02-28T20:02:28.541Z,29.75
2023-02-28T20:09:10.867Z,27.75
2023-02-28T20:15:53.150Z,22.98
2023-02-28T20:22:38.244Z,23.10
2023-02-28T20:29:20.864Z,21.00
2023-02-28T20:36:05.490Z,21.70
2023-02-28T20:42:47.798Z,24.83
2023-02-28T20:49:30.145Z,25.25
2023-02-28T20:56:18.303Z,21.25
2023-02-28T21:03:00.698Z,20.45
2023-02-28T21:09:43.121Z,22.17
2023-02-28T21:16:27.171Z,21.83
2023-02-28T21:23:09.560Z,19.58
2023-02-28T21:29:51.885Z,22.33
2023-02-28T21:36:40.432Z,19.20
2023-02-28T21:43:22.841Z,22.40
2023-02-28T21:50:05.536Z,21.95
2023-02-28T21:56:50.439Z,21.30
2023-02-28T22:03:32.956Z,22.35
2023-02-28T22:10:15.658Z,25.92
2023-02-28T22:16:58.277Z,25.35
2023-02-28T22:23:42.208Z,27.42
2023-02-28T22:30:24.726Z,27.90
2023-02-28T22:37:07.065Z,27.80
2023-02-28T22:43:54.624Z,27.83
2023-02-28T22:50:37.150Z,25.17
2023-02-28T22:57:19.597Z,27.13
2023-02-28T23:04:02.675Z,33.50
2023-02-28T23:10:45.060Z,27.33
2023-02-28T23:17:28.021Z,22.52
2023-02-28T23:24:13.681Z,22.83
2023-02-28T23:30:56.021Z,27.80
2023-02-28T23:37:39.667Z,20.33
2023-02-28T23:44:22.045Z,22.10
2023-02-28T23:51:14.665Z,22.13
2023-02-28T23:57:57.231Z,20.65
